createdAt,value
2023-03-15T00:00:49.376Z,15.95
2023-03-15T00:03:16.772Z,21.80
2023-03-15T00:05:45.408Z,15.93
2023-03-15T00:08:12.980Z,15.13
2023-03-15T00:10:44.084Z,14.77
2023-03-15T00:13:11.874Z,14.40
2023-03-15T00:15:48.991Z,13.43
2023-03-15T00:18:17.201Z,14.05
2023-03-15T00:20:44.326Z,12.63
2023-03-15T00:23:11.646Z,11.73
2023-03-15T00:25:38.576Z,12.93
2023-03-15T00:28:07.177Z,11.57
2023-03-15T00:30:34.110Z,12.30
2023-03-15T00:33:01.037Z,9.75
2023-03-15T00:35:28.023Z,9.30
2023-03-15T00:37:56.137Z,8.77
2023-03-15T00:40:25.802Z,9.05
2023-03-15T00:42:52.792Z,7.57
2023-03-15T00:45:21.579Z,7.60
2023-03-15T00:47:52.944Z,7.43
2023-03-15T00:50:22.787Z,7.40
2023-03-15T00:52:50.053Z,6.25
2023-03-15T00:55:19.711Z,6.57
2023-03-15T00:57:48.697Z,7.22
2023-03-15T01:00:20.572Z,5.53
2023-03-15T01:02:47.898Z,4.13
2023-03-15T01:05:15.224Z,4.70
2023-03-15T01:07:42.356Z,5.15
2023-03-15T01:10:11.602Z,4.10
2023-03-15T01:12:38.593Z,2.70
2023-03-15T01:15:07.634Z,4.00
2023-03-15T01:17:34.919Z,3.22
2023-03-15T01:20:02.495Z,2.70
2023-03-15T01:22:29.428Z,3.22
2023-03-15T01:24:56.345Z,3.10
2023-03-15T01:27:23.246Z,3.45
2023-03-15T01:29:52.402Z,3.40
2023-03-15T01:32:19.350Z,3.20
2023-03-15T01:34:46.628Z,3.55
2023-03-15T01:37:14.661Z,3.50
2023-03-15T01:39:44.313Z,3.53
2023-03-15T01:42:11.576Z,4.22
2023-03-15T01:44:59.925Z,3.88
2023-03-15T01:47:27.979Z,3.92
2023-03-15T01:50:08.659Z,3.85
2023-03-15T01:52:38.861Z,3.75
2023-03-15T01:55:19.556Z,3.38
2023-03-15T01:58:07.313Z,3.55
2023-03-15T02:00:37.899Z,4.00
2023-03-15T02:03:15.312Z,4.00
2023-03-15T02:05:49.075Z,3.60
2023-03-15T02:08:29.999Z,4.03
2023-03-15T02:10:59.888Z,4.18
2023-03-15T02:13:30.400Z,4.65
2023-03-15T02:16:01.243Z,4.28
2023-03-15T02:18:36.044Z,4.07
2023-03-15T02:21:08.805Z,4.05
2023-03-15T02:23:36.026Z,4.50
2023-03-15T02:26:27.141Z,4.30
2023-03-15T02:28:55.033Z,4.50
2023-03-15T02:31:22.698Z,4.10
2023-03-15T02:33:52.401Z,3.78
2023-03-15T02:36:25.820Z,4.10
2023-03-15T02:38:54.249Z,3.75
2023-03-15T02:41:32.450Z,3.85
2023-03-15T02:44:14.128Z,3.20
2023-03-15T02:46:42.815Z,4.10
2023-03-15T02:49:11.881Z,3.45
2023-03-15T02:51:38.899Z,3.38
2023-03-15T02:54:05.920Z,3.40
2023-03-15T02:56:33.622Z,3.10
2023-03-15T02:59:01.701Z,2.70
2023-03-15T03:01:31.717Z,3.53
2023-03-15T03:03:59.708Z,3.00
2023-03-15T03:06:26.618Z,2.40
2023-03-15T03:08:53.719Z,2.50
2023-03-15T03:11:21.349Z,2.80
2023-03-15T03:13:48.355Z,2.83
2023-03-15T03:16:15.399Z,3.00
2023-03-15T03:18:43.519Z,2.92
2023-03-15T03:21:10.509Z,3.28
2023-03-15T03:23:37.811Z,3.10
2023-03-15T03:26:16.628Z,3.05
2023-03-15T03:28:46.631Z,2.38
2023-03-15T03:31:21.219Z,2.75
2023-03-15T03:33:49.430Z,2.70
2023-03-15T03:36:16.892Z,2.95
2023-03-15T03:38:46.127Z,2.17
2023-03-15T03:41:15.334Z,2.17
2023-03-15T03:43:42.741Z,2.30
2023-03-15T03:46:10.435Z,2.30
2023-03-15T03:48:42.817Z,2.67
2023-03-15T03:51:10.128Z,2.50
2023-03-15T03:53:37.284Z,2.42
2023-03-15T03:56:08.367Z,2.20
2023-03-15T03:58:36.706Z,2.25
2023-03-15T04:01:11.748Z,1.95
2023-03-15T04:03:40.186Z,2.00
2023-03-15T04:06:14.152Z,1.75
2023-03-15T04:08:44.595Z,1.90
2023-03-15T04:11:17.663Z,1.65
2023-03-15T04:13:49.807Z,1.50
2023-03-15T04:16:16.932Z,1.88
2023-03-15T04:18:57.448Z,2.67
2023-03-15T04:21:25.208Z,2.00
2023-03-15T04:23:57.206Z,1.80
2023-03-15T04:26:37.887Z,1.80
2023-03-15T04:29:24.207Z,3.20
2023-03-15T04:32:01.598Z,1.63
2023-03-15T04:34:51.343Z,1.83
2023-03-15T04:37:47.529Z,1.90
2023-03-15T04:40:42.898Z,1.67
2023-03-15T04:43:42.419Z,1.85
2023-03-15T04:46:26.962Z,1.80
2023-03-15T04:49:10.371Z,1.77
2023-03-15T04:51:57.610Z,1.55
2023-03-15T04:54:39.783Z,1.90
2023-03-15T04:57:27.063Z,1.85
2023-03-15T05:00:13.399Z,1.95
2023-03-15T05:03:00.600Z,1.55
2023-03-15T05:05:48.909Z,1.10
2023-03-15T05:08:31.074Z,1.10
2023-03-15T05:11:21.401Z,1.58
2023-03-15T05:14:07.569Z,1.40
2023-03-15T05:16:34.517Z,1.58
2023-03-15T05:19:12.461Z,1.30
2023-03-15T05:21:57.501Z,1.17
2023-03-15T05:24:46.989Z,1.45
2023-03-15T05:27:22.611Z,1.70
2023-03-15T05:30:09.058Z,1.30
2023-03-15T05:32:54.512Z,2.05
2023-03-15T05:35:39.605Z,1.60
2023-03-15T05:38:26.895Z,1.45
2023-03-15T05:41:12.522Z,1.63
2023-03-15T05:43:48.333Z,1.67
2023-03-15T05:46:34.003Z,2.17
2023-03-15T05:49:14.568Z,1.40
2023-03-15T05:52:00.601Z,1.58
2023-03-15T05:54:46.172Z,1.30
2023-03-15T05:57:19.069Z,1.50
2023-03-15T06:00:07.123Z,1.80
2023-03-15T06:02:44.015Z,1.95
2023-03-15T06:08:07.149Z,1.30
2023-03-15T06:10:36.629Z,1.73
2023-03-15T06:13:07.762Z,1.83
2023-03-15T06:15:34.756Z,2.22
2023-03-15T06:18:02.314Z,1.70
2023-03-15T06:20:31.165Z,2.13
2023-03-15T06:23:04.348Z,1.98
2023-03-15T06:25:40.025Z,1.80
2023-03-15T06:28:07.112Z,2.30
2023-03-15T06:30:35.866Z,2.42
2023-03-15T06:33:03.314Z,2.63
2023-03-15T06:35:31.126Z,2.20
2023-03-15T06:37:58.205Z,2.55
2023-03-15T06:40:25.156Z,2.70
2023-03-15T06:42:52.724Z,3.08
2023-03-15T06:45:20.986Z,2.53
2023-03-15T06:47:48.872Z,3.28
2023-03-15T06:50:17.358Z,3.22
2023-03-15T06:52:44.314Z,2.97
2023-03-15T06:55:12.572Z,3.70
2023-03-15T06:57:42.914Z,3.10
2023-03-15T07:00:11.960Z,3.00
2023-03-15T07:02:39.281Z,3.20
2023-03-15T07:05:06.985Z,4.05
2023-03-15T07:07:34.060Z,4.63
2023-03-15T07:10:01.025Z,4.10
2023-03-15T07:12:27.936Z,3.63
2023-03-15T07:14:54.853Z,3.45
2023-03-15T07:17:21.949Z,4.20
2023-03-15T07:19:56.241Z,3.88
2023-03-15T07:22:23.840Z,4.05
2023-03-15T07:24:51.293Z,4.45
2023-03-15T07:27:19.603Z,4.70
2023-03-15T07:29:46.687Z,4.80
2023-03-15T07:32:13.668Z,9.20
2023-03-15T07:49:40.625Z,5.65
2023-03-15T07:52:07.966Z,3.63
2023-03-15T07:54:34.914Z,4.10
2023-03-15T07:57:01.808Z,4.13
2023-03-15T16:21:18.647Z,4.13
2023-03-15T16:26:17.080Z,3.85
2023-03-15T16:28:44.494Z,4.30
2023-03-15T16:31:12.438Z,3.92
2023-03-15T16:33:39.832Z,3.70
2023-03-15T16:36:15.491Z,3.30
2023-03-15T16:38:42.435Z,2.50
2023-03-15T16:41:13.148Z,2.28
2023-03-15T16:43:40.131Z,2.50
2023-03-15T16:46:13.917Z,3.10
2023-03-15T16:51:11.284Z,2.97
2023-03-15T16:53:39.194Z,3.63
2023-03-15T16:56:06.316Z,4.13
2023-03-15T16:58:33.304Z,3.00
2023-03-15T17:01:00.269Z,3.58
2023-03-15T17:03:33.262Z,3.47
2023-03-15T17:06:01.642Z,4.75
2023-03-15T17:08:28.978Z,3.60
2023-03-15T17:10:56.017Z,3.50
2023-03-15T17:13:32.828Z,3.28
2023-03-15T17:15:59.762Z,3.60
2023-03-15T17:18:28.622Z,3.80
2023-03-15T17:20:55.630Z,4.90
2023-03-15T17:23:23.673Z,5.70
2023-03-15T17:25:51.241Z,8.73
2023-03-15T17:28:18.352Z,6.50
2023-03-15T17:30:45.409Z,5.30
2023-03-15T17:33:12.410Z,5.10
2023-03-15T17:35:58.072Z,5.10
2023-03-15T17:38:32.254Z,5.35
2023-03-15T17:40:59.529Z,5.07
2023-03-15T17:43:26.820Z,6.47
2023-03-15T17:45:53.752Z,7.00
2023-03-15T17:48:23.752Z,5.45
2023-03-15T17:50:50.788Z,5.53
2023-03-15T17:53:20.184Z,5.38
2023-03-15T17:55:48.044Z,4.80
2023-03-15T17:58:21.573Z,4.95
2023-03-15T18:00:50.898Z,5.65
2023-03-15T18:03:18.636Z,6.22
2023-03-15T18:05:45.814Z,6.57
2023-03-15T18:08:18.279Z,7.28
2023-03-15T18:10:46.216Z,8.68
2023-03-15T18:13:17.644Z,7.53
2023-03-15T18:15:45.733Z,8.43
2023-03-15T18:18:12.770Z,7.82
2023-03-15T18:20:41.167Z,7.85
2023-03-15T18:23:10.300Z,9.05
2023-03-15T18:25:37.282Z,9.60
2023-03-15T18:28:04.366Z,7.70
2023-03-15T18:30:33.165Z,7.45
2023-03-15T18:33:00.665Z,7.18
2023-03-15T18:35:31.591Z,6.68
2023-03-15T18:37:59.138Z,5.78
2023-03-15T18:40:29.612Z,6.22
2023-03-15T18:42:58.751Z,6.60
2023-03-15T18:45:35.104Z,5.85
2023-03-15T18:48:02.266Z,6.00
2023-03-15T18:50:29.919Z,5.45
2023-03-15T18:52:57.395Z,5.25
2023-03-15T18:55:24.405Z,5.90
2023-03-15T18:57:52.388Z,5.90
2023-03-15T19:00:26.699Z,5.65
2023-03-15T19:02:56.468Z,6.28
2023-03-15T19:05:24.676Z,6.90
2023-03-15T19:07:51.706Z,5.53
2023-03-15T19:10:20.416Z,4.95
2023-03-15T19:12:49.056Z,5.35
2023-03-15T19:15:17.553Z,5.90
2023-03-15T19:17:46.714Z,5.10
2023-03-15T19:20:25.103Z,4.45
2023-03-15T19:22:52.592Z,4.95
2023-03-15T19:25:19.765Z,5.65
2023-03-15T19:27:47.153Z,4.80
2023-03-15T19:30:18.229Z,4.70
2023-03-15T19:32:47.747Z,5.00
2023-03-15T19:35:15.422Z,4.57
2023-03-15T19:37:44.392Z,4.80
2023-03-15T19:40:13.097Z,4.50
2023-03-15T19:42:40.086Z,4.50
2023-03-15T19:45:08.309Z,4.22
2023-03-15T19:47:35.277Z,4.35
2023-03-15T19:50:02.838Z,4.30
2023-03-15T19:52:33.114Z,3.70
2023-03-15T19:55:01.084Z,3.97
2023-03-15T19:57:28.577Z,4.15
2023-03-15T19:59:55.500Z,4.35
2023-03-15T20:02:22.974Z,4.13
2023-03-15T20:04:50.039Z,3.60
2023-03-15T20:07:17.427Z,3.15
2023-03-15T20:09:44.436Z,3.70
2023-03-15T20:12:12.967Z,3.15
2023-03-15T20:14:40.277Z,3.28
2023-03-15T20:17:07.369Z,2.95
2023-03-15T20:19:35.976Z,4.43
2023-03-15T20:24:29.876Z,4.63
2023-03-15T20:26:56.888Z,4.40
2023-03-15T20:29:23.951Z,3.22
2023-03-15T20:31:51.904Z,2.80
2023-03-15T20:34:19.333Z,4.28
2023-03-15T20:36:46.852Z,5.05
2023-03-15T20:39:15.226Z,5.55
2023-03-15T20:41:42.689Z,7.40
2023-03-15T20:44:10.714Z,12.57
2023-03-15T20:46:38.155Z,6.03
2023-03-15T20:49:05.399Z,4.20
2023-03-15T20:51:33.026Z,4.35
2023-03-15T20:54:00.045Z,4.15
2023-03-15T20:56:27.113Z,4.55
2023-03-15T20:58:54.383Z,4.38
2023-03-15T21:01:21.481Z,2.90
2023-03-15T21:03:48.741Z,5.07
2023-03-15T21:06:15.780Z,4.13
2023-03-15T21:08:42.760Z,5.93
2023-03-15T21:11:09.995Z,5.13
2023-03-15T21:13:37.285Z,8.95
2023-03-15T21:16:04.796Z,7.00
2023-03-15T21:18:33.599Z,5.10
2023-03-15T21:21:08.289Z,3.50
2023-03-15T21:23:35.962Z,4.35
2023-03-15T21:26:06.303Z,5.57
2023-03-15T21:28:33.679Z,5.78
2023-03-15T21:31:00.848Z,4.80
2023-03-15T21:33:29.667Z,3.45
2023-03-15T21:35:59.135Z,3.45
2023-03-15T21:38:34.151Z,2.88
2023-03-15T21:41:05.785Z,3.88
2023-03-15T21:43:33.532Z,2.20
2023-03-15T21:46:06.189Z,2.28
2023-03-15T21:48:34.399Z,2.15
2023-03-15T21:51:02.208Z,2.20
2023-03-15T21:53:31.036Z,2.10
2023-03-15T21:55:59.120Z,3.53
2023-03-15T21:58:27.293Z,6.82
2023-03-15T22:01:02.432Z,2.45
2023-03-15T22:03:29.485Z,9.05
2023-03-15T22:05:57.087Z,11.40
2023-03-15T22:08:25.009Z,3.75
2023-03-15T22:10:56.896Z,2.85
2023-03-15T22:13:24.032Z,4.18
